createdAt,value
2023-11-18T00:00:12.510Z,3.75
2023-11-18T00:03:00.015Z,4.07
2023-11-18T00:05:27.123Z,3.73
2023-11-18T00:07:54.390Z,4.18
2023-11-18T00:10:21.329Z,3.20
2023-11-18T00:12:48.565Z,3.08
2023-11-18T00:15:15.530Z,3.30
2023-11-18T00:17:42.880Z,3.00
2023-11-18T00:20:10.865Z,2.78
2023-11-18T00:22:38.289Z,3.20
2023-11-18T00:25:15.650Z,3.33
2023-11-18T00:27:44.699Z,3.40
2023-11-18T00:30:15.015Z,3.30
2023-11-18T00:32:42.829Z,2.80
2023-11-18T00:35:11.895Z,3.50
2023-11-18T00:37:39.441Z,3.38
2023-11-18T00:40:09.091Z,3.65
2023-11-18T00:42:37.103Z,3.43
2023-11-18T00:45:05.556Z,2.92
2023-11-18T00:47:34.542Z,2.67
2023-11-18T00:50:03.538Z,2.60
2023-11-18T00:52:30.995Z,3.15
2023-11-18T00:54:57.969Z,3.00
2023-11-18T00:57:25.305Z,2.85
2023-11-18T00:59:52.280Z,2.90
2023-11-18T01:02:19.634Z,3.08
2023-11-18T01:04:47.316Z,3.13
2023-11-18T01:07:14.699Z,2.90
2023-11-18T01:09:41.809Z,3.10
2023-11-18T01:12:11.259Z,3.28
2023-11-18T01:14:40.244Z,3.03
2023-11-18T01:17:08.679Z,3.42
2023-11-18T01:19:35.781Z,3.30
2023-11-18T01:22:06.865Z,3.00
2023-11-18T01:24:34.860Z,2.72
2023-11-18T01:27:02.692Z,2.45
2023-11-18T01:29:29.630Z,3.20
2023-11-18T01:31:57.663Z,2.90
2023-11-18T01:34:24.753Z,3.00
2023-11-18T01:36:52.033Z,3.17
2023-11-18T01:39:19.582Z,2.72
2023-11-18T01:41:47.335Z,2.85
2023-11-18T01:44:19.009Z,2.77
2023-11-18T01:46:47.185Z,2.80
2023-11-18T01:49:15.720Z,2.40
2023-11-18T01:51:46.751Z,2.50
2023-11-18T01:54:20.503Z,2.45
2023-11-18T01:56:50.299Z,2.60
2023-11-18T01:59:20.860Z,3.00
2023-11-18T02:01:54.768Z,3.45
2023-11-18T02:04:23.009Z,2.70
2023-11-18T02:06:51.281Z,2.80
2023-11-18T02:09:30.343Z,2.93
2023-11-18T02:12:00.763Z,2.65
2023-11-18T02:14:28.659Z,3.38
2023-11-18T02:17:00.306Z,3.15
2023-11-18T02:19:28.264Z,2.78
2023-11-18T02:21:58.058Z,2.77
2023-11-18T02:24:32.068Z,2.97
2023-11-18T02:27:00.041Z,3.40
2023-11-18T02:29:31.278Z,3.78
2023-11-18T02:32:46.364Z,3.75
2023-11-18T02:35:18.081Z,3.40
2023-11-18T02:37:48.520Z,3.35
2023-11-18T02:40:31.880Z,3.60
2023-11-18T02:43:01.887Z,3.70
2023-11-18T02:45:29.685Z,4.13
2023-11-18T02:47:58.781Z,4.37
2023-11-18T02:50:26.680Z,4.45
2023-11-18T02:52:54.370Z,5.57
2023-11-18T02:55:25.715Z,5.80
2023-11-18T02:57:53.088Z,6.40
2023-11-18T03:00:23.245Z,6.17
2023-11-18T03:02:53.554Z,9.32
2023-11-18T03:05:22.072Z,8.02
2023-11-18T03:07:54.979Z,6.47
2023-11-18T03:10:22.941Z,7.85
2023-11-18T03:12:54.963Z,7.83
2023-11-18T03:15:23.531Z,8.30
2023-11-18T03:17:51.933Z,9.60
2023-11-18T03:20:20.880Z,7.82
2023-11-18T03:22:48.925Z,9.82
2023-11-18T03:25:16.786Z,7.33
2023-11-18T03:27:45.701Z,6.50
2023-11-18T03:30:13.608Z,5.43
2023-11-18T03:32:41.466Z,5.90
2023-11-18T03:35:10.587Z,6.03
2023-11-18T03:37:45.165Z,5.93
2023-11-18T03:40:14.321Z,5.20
2023-11-18T03:42:47.777Z,5.82
2023-11-18T03:45:19.080Z,6.20
2023-11-18T03:47:46.521Z,7.20
2023-11-18T03:50:14.896Z,5.63
2023-11-18T03:52:42.780Z,6.53
2023-11-18T03:55:10.198Z,4.97
2023-11-18T03:57:37.520Z,7.20
2023-11-18T04:00:05.127Z,5.35
2023-11-18T04:02:37.701Z,5.57
2023-11-18T04:05:05.550Z,5.28
2023-11-18T04:07:32.975Z,5.13
2023-11-18T04:10:01.543Z,5.18
2023-11-18T04:12:28.922Z,5.22
2023-11-18T04:14:56.004Z,6.63
2023-11-18T04:17:23.355Z,6.10
2023-11-18T04:19:50.336Z,6.38
2023-11-18T04:22:17.581Z,5.68
2023-11-18T04:24:46.434Z,4.78
2023-11-18T04:27:13.717Z,4.23
2023-11-18T04:29:41.587Z,4.30
2023-11-18T04:32:11.986Z,4.18
2023-11-18T04:34:39.109Z,4.32
2023-11-18T04:37:07.213Z,4.40
2023-11-18T04:39:34.711Z,5.03
2023-11-18T04:42:02.686Z,5.15
2023-11-18T04:44:29.650Z,5.03
2023-11-18T04:46:56.913Z,5.38
2023-11-18T04:49:23.958Z,6.68
2023-11-18T04:51:51.307Z,7.73
2023-11-18T04:54:18.382Z,6.28
2023-11-18T04:56:45.626Z,6.65
2023-11-18T04:59:12.586Z,5.82
2023-11-18T05:01:39.998Z,5.38
2023-11-18T05:04:09.556Z,4.87
2023-11-18T05:06:36.944Z,5.05
2023-11-18T05:09:03.912Z,4.47
2023-11-18T05:11:31.188Z,5.43
2023-11-18T05:13:58.363Z,4.20
2023-11-18T05:16:25.717Z,4.07
2023-11-18T05:18:52.665Z,4.00
2023-11-18T05:21:19.967Z,3.95
2023-11-18T05:23:46.845Z,4.47
2023-11-18T05:26:15.893Z,4.30
2023-11-18T05:28:46.426Z,3.97
2023-11-18T05:31:14.115Z,3.60
2023-11-18T05:33:41.031Z,4.03
2023-11-18T05:36:08.794Z,4.65
2023-11-18T05:38:36.490Z,4.05
2023-11-18T05:41:05.319Z,3.73
2023-11-18T05:43:42.395Z,3.58
2023-11-18T05:46:16.136Z,3.72
2023-11-18T05:48:46.505Z,4.15
2023-11-18T05:51:14.424Z,3.67
2023-11-18T05:53:43.364Z,3.63
2023-11-18T05:56:10.692Z,3.63
2023-11-18T05:58:38.648Z,3.13
2023-11-18T06:01:08.966Z,3.58
2023-11-18T06:03:40.152Z,4.50
2023-11-18T06:06:11.696Z,4.87
2023-11-18T06:08:42.561Z,4.38
2023-11-18T06:11:17.527Z,4.78
2023-11-18T06:13:47.923Z,4.60
2023-11-18T06:16:23.739Z,3.83
2023-11-18T06:18:59.082Z,3.40
2023-11-18T06:21:31.837Z,3.10
2023-11-18T06:24:02.528Z,3.10
2023-11-18T06:26:30.115Z,3.03
2023-11-18T06:28:57.801Z,2.45
2023-11-18T06:31:25.751Z,2.50
2023-11-18T06:33:54.083Z,2.42
2023-11-18T06:36:22.854Z,2.65
2023-11-18T06:38:52.324Z,2.60
2023-11-18T06:41:25.218Z,2.40
2023-11-18T06:44:00.830Z,2.40
2023-11-18T06:46:35.868Z,2.35
2023-11-18T06:49:08.570Z,2.58
2023-11-18T06:51:37.721Z,3.33
2023-11-18T06:54:12.900Z,5.20
2023-11-18T06:56:45.166Z,4.40
2023-11-18T06:59:17.319Z,4.45
2023-11-18T07:01:47.507Z,5.50
2023-11-18T07:04:16.389Z,6.10
2023-11-18T07:06:44.810Z,6.68
2023-11-18T07:09:19.354Z,4.80
2023-11-18T07:11:49.484Z,4.72
2023-11-18T07:14:17.303Z,5.25
2023-11-18T07:16:45.934Z,5.25
2023-11-18T07:19:21.888Z,5.15
2023-11-18T07:21:51.155Z,6.20
2023-11-18T07:24:22.070Z,5.40
2023-11-18T07:26:50.409Z,4.57
2023-11-18T07:29:18.153Z,5.03
2023-11-18T07:31:47.214Z,5.70
2023-11-18T07:34:14.225Z,6.10
2023-11-18T07:36:41.560Z,5.18
2023-11-18T07:39:17.408Z,4.22
2023-11-18T07:41:45.766Z,4.20
2023-11-18T07:44:14.446Z,4.75
2023-11-18T07:46:44.457Z,4.90
2023-11-18T07:49:12.529Z,5.20
2023-11-18T07:51:41.915Z,5.20
2023-11-18T07:54:11.488Z,4.20
2023-11-18T07:56:39.314Z,4.05
2023-11-18T07:59:08.140Z,4.00
2023-11-18T08:01:35.865Z,4.03
2023-11-18T08:04:02.825Z,3.65
2023-11-18T08:06:30.092Z,3.42
2023-11-18T08:08:59.047Z,3.40
2023-11-18T08:11:26.747Z,3.10
2023-11-18T08:13:54.856Z,3.22
2023-11-18T08:16:23.639Z,3.60
2023-11-18T08:18:50.600Z,3.72
2023-11-18T08:21:17.796Z,4.38
2023-11-18T08:23:44.726Z,3.80
2023-11-18T08:26:13.331Z,4.28
2023-11-18T08:28:40.253Z,3.95
2023-11-18T08:31:08.259Z,4.50
2023-11-18T08:33:35.254Z,4.32
2023-11-18T08:36:02.980Z,4.50
2023-11-18T08:38:30.891Z,4.68
2023-11-18T08:40:58.223Z,5.13
2023-11-18T08:43:26.843Z,5.25
2023-11-18T08:45:54.166Z,5.18
2023-11-18T08:48:21.208Z,4.70
2023-11-18T08:50:48.739Z,5.00
2023-11-18T08:53:19.819Z,4.85
2023-11-18T08:55:55.710Z,5.07
2023-11-18T08:58:24.115Z,4.40
2023-11-18T09:00:55.796Z,6.07
2023-11-18T09:03:30.278Z,6.20
2023-11-18T09:06:05.631Z,6.55
2023-11-18T09:08:39.486Z,6.85
2023-11-18T09:11:12.157Z,5.72
2023-11-18T09:13:40.189Z,5.50
2023-11-18T09:16:11.468Z,6.68
2023-11-18T09:18:46.327Z,6.32
2023-11-18T09:21:16.933Z,6.25
2023-11-18T09:23:44.618Z,6.45
2023-11-18T09:26:12.079Z,6.00
2023-11-18T09:28:39.661Z,6.72
2023-11-18T09:31:12.616Z,5.93
2023-11-18T09:33:46.289Z,5.78
2023-11-18T09:36:13.855Z,5.72
2023-11-18T09:38:42.412Z,5.70
2023-11-18T09:41:13.941Z,6.22
2023-11-18T09:43:49.352Z,5.75
2023-11-18T09:46:23.322Z,5.72
2023-11-18T09:48:54.757Z,6.75
2023-11-18T09:51:29.416Z,6.03
2023-11-18T09:53:57.266Z,5.80
2023-11-18T09:56:35.536Z,5.50
2023-11-18T09:59:17.549Z,5.43
2023-11-18T10:01:46.186Z,4.70
2023-11-18T10:04:15.242Z,4.30
2023-11-18T10:06:46.022Z,4.82
2023-11-18T10:09:20.560Z,4.35
2023-11-18T10:11:50.932Z,4.10
2023-11-18T10:14:18.373Z,5.03
2023-11-18T10:16:49.483Z,5.30
2023-11-18T10:19:19.453Z,4.78
2023-11-18T10:21:50.726Z,4.22
2023-11-18T10:24:21.269Z,4.80
2023-11-18T10:26:58.089Z,5.05
2023-11-18T10:29:29.713Z,5.37
2023-11-18T10:32:11.366Z,5.00
2023-11-18T10:34:38.978Z,4.43
2023-11-18T10:37:07.989Z,4.63
2023-11-18T10:39:36.647Z,4.60
2023-11-18T10:42:04.854Z,5.50
2023-11-18T10:44:32.388Z,6.18
2023-11-18T10:47:00.693Z,4.40
2023-11-18T10:49:29.152Z,3.90
2023-11-18T10:51:58.321Z,4.10
2023-11-18T10:54:27.844Z,4.50
2023-11-18T10:56:58.231Z,4.05
2023-11-18T10:59:26.585Z,9.20
2023-11-18T11:01:54.004Z,7.22
2023-11-18T11:04:23.857Z,5.22
2023-11-18T11:06:55.481Z,5.70
2023-11-18T11:09:29.002Z,6.43
2023-11-18T11:12:08.052Z,7.47
2023-11-18T11:14:42.623Z,6.85
2023-11-18T11:17:19.709Z,6.18
2023-11-18T11:19:58.524Z,12.27
2023-11-18T11:22:34.198Z,8.15
2023-11-18T11:25:11.161Z,5.75
2023-11-18T11:28:03.064Z,5.43
2023-11-18T11:30:33.218Z,5.43
2023-11-18T11:33:20.558Z,5.30
2023-11-18T11:35:58.595Z,11.15
2023-11-18T11:38:28.248Z,36.42
2023-11-18T11:40:56.530Z,32.40
2023-11-18T11:43:23.930Z,29.50
2023-11-18T11:45:56.845Z,31.80
2023-11-18T11:48:29.130Z,28.05
2023-11-18T11:51:27.984Z,46.10
2023-11-18T11:54:16.086Z,47.42
2023-11-18T11:56:44.793Z,29.45
2023-11-18T11:59:12.896Z,20.40
2023-11-18T12:01:46.488Z,16.02
2023-11-18T12:04:22.705Z,15.82
2023-11-18T12:06:49.764Z,12.85
2023-11-18T12:09:23.280Z,13.30
2023-11-18T12:11:51.214Z,15.20
2023-11-18T12:14:34.339Z,11.32
2023-11-18T12:17:11.535Z,11.73
2023-11-18T12:19:47.875Z,10.30
2023-11-18T12:22:26.256Z,10.20
2023-11-18T12:24:59.670Z,9.37
2023-11-18T12:27:42.491Z,9.30
2023-11-18T12:30:16.581Z,8.00
2023-11-18T12:33:07.222Z,6.32
2023-11-18T12:35:38.314Z,6.38
2023-11-18T12:38:35.659Z,5.30
2023-11-18T12:41:06.473Z,6.68
2023-11-18T12:43:49.187Z,7.18
2023-11-18T12:46:16.579Z,6.03
2023-11-18T12:48:45.515Z,7.03
2023-11-18T12:51:20.737Z,6.80
2023-11-18T12:53:51.656Z,8.10
2023-11-18T12:56:20.975Z,7.85
2023-11-18T12:58:48.798Z,6.43
2023-11-18T13:01:17.448Z,6.82
2023-11-18T13:03:45.600Z,5.83
2023-11-18T13:06:13.361Z,6.72
2023-11-18T13:08:40.867Z,5.90
2023-11-18T13:11:13.662Z,5.70
2023-11-18T13:13:40.910Z,5.50
2023-11-18T13:16:10.343Z,4.73
2023-11-18T13:18:50.685Z,5.53
2023-11-18T13:21:19.707Z,6.22
2023-11-18T13:23:56.887Z,6.45
2023-11-18T13:26:25.750Z,6.40
2023-11-18T13:28:52.969Z,5.60
2023-11-18T13:31:20.576Z,5.50
2023-11-18T13:33:50.807Z,5.13
2023-11-18T13:36:18.632Z,5.38
2023-11-18T13:38:50.653Z,6.82
2023-11-18T13:41:32.438Z,5.80
2023-11-18T13:44:00.260Z,6.95
2023-11-18T13:46:27.678Z,6.50
2023-11-18T13:48:55.130Z,6.40
2023-11-18T13:51:23.040Z,6.63
2023-11-18T13:53:50.013Z,6.30
2023-11-18T13:56:20.409Z,6.18
2023-11-18T13:58:48.045Z,10.93
2023-11-18T14:01:16.321Z,9.85
2023-11-18T14:03:44.997Z,9.88
2023-11-18T14:06:12.446Z,8.57
2023-11-18T14:08:40.365Z,8.23
2023-11-18T14:11:15.411Z,8.48
2023-11-18T14:13:45.290Z,7.47
2023-11-18T14:16:14.263Z,7.45
2023-11-18T14:18:43.360Z,7.53
2023-11-18T14:21:11.173Z,7.90
2023-11-18T14:23:39.281Z,9.57
2023-11-18T14:26:09.097Z,7.43
2023-11-18T14:28:36.446Z,7.50
2023-11-18T14:31:09.341Z,7.47
2023-11-18T14:33:36.332Z,7.50
2023-11-18T14:36:06.658Z,7.68
2023-11-18T14:38:35.591Z,6.68
2023-11-18T14:41:04.171Z,6.18
2023-11-18T14:43:31.667Z,6.37
2023-11-18T14:45:59.236Z,7.32
2023-11-18T14:48:26.247Z,8.80
2023-11-18T14:50:53.604Z,8.27
2023-11-18T14:53:21.112Z,6.97
2023-11-18T14:55:48.408Z,6.20
2023-11-18T14:58:15.391Z,5.38
2023-11-18T15:00:43.856Z,5.93
2023-11-18T15:03:11.662Z,5.90
2023-11-18T15:05:39.799Z,6.22
2023-11-18T15:08:10.900Z,6.37
2023-11-18T15:10:38.706Z,5.55
2023-11-18T15:13:05.607Z,4.72
2023-11-18T15:15:33.792Z,5.43
2023-11-18T15:18:26.036Z,7.53
2023-11-18T15:20:53.399Z,5.40
2023-11-18T15:23:23.377Z,4.65
2023-11-18T15:25:53.442Z,5.43
2023-11-18T15:28:21.030Z,5.32
2023-11-18T15:30:48.300Z,5.15
2023-11-18T15:33:16.070Z,5.03
2023-11-18T15:35:43.485Z,5.05
2023-11-18T15:38:18.621Z,5.43
2023-11-18T15:40:46.759Z,5.55
2023-11-18T15:43:13.870Z,5.68
2023-11-18T15:45:41.191Z,4.83
2023-11-18T15:48:11.403Z,6.40
2023-11-18T15:50:39.110Z,5.85
2023-11-18T15:53:09.428Z,8.43
2023-11-18T15:55:40.089Z,5.45
2023-11-18T15:58:07.040Z,5.53
2023-11-18T16:00:38.341Z,5.22
2023-11-18T16:03:10.203Z,4.80
2023-11-18T16:05:37.983Z,5.60
2023-11-18T16:08:08.964Z,4.43
2023-11-18T16:10:38.893Z,5.27
2023-11-18T16:13:05.943Z,7.65
2023-11-18T16:15:34.196Z,7.00
2023-11-18T16:18:02.118Z,6.60
2023-11-18T16:20:35.080Z,5.75
2023-11-18T16:23:06.727Z,6.43
2023-11-18T16:25:37.669Z,8.60
2023-11-18T16:28:05.744Z,8.45
2023-11-18T16:30:34.446Z,9.10
2023-11-18T16:33:02.962Z,8.73
2023-11-18T16:35:31.333Z,6.77
2023-11-18T16:38:01.731Z,6.80
2023-11-18T16:40:30.142Z,5.60
2023-11-18T16:42:57.887Z,5.68
2023-11-18T16:45:26.346Z,5.40
2023-11-18T16:47:55.386Z,6.87
2023-11-18T16:50:25.159Z,7.85
2023-11-18T16:52:52.591Z,10.20
2023-11-18T16:55:22.661Z,7.97
2023-11-18T16:57:53.854Z,8.05
2023-11-18T17:00:27.019Z,8.83
2023-11-18T17:02:58.107Z,8.95
2023-11-18T17:05:31.781Z,8.70
2023-11-18T17:08:00.787Z,7.50
2023-11-18T17:10:28.873Z,6.95
2023-11-18T17:12:55.931Z,8.20
2023-11-18T17:15:23.309Z,9.73
2023-11-18T17:17:54.958Z,9.30
2023-11-18T17:20:22.656Z,10.18
2023-11-18T17:22:49.644Z,8.82
2023-11-18T17:25:17.711Z,9.37
2023-11-18T17:27:46.921Z,8.35
2023-11-18T17:30:17.598Z,10.05
2023-11-18T17:32:48.792Z,11.27
2023-11-18T17:35:17.710Z,10.75
2023-11-18T17:37:47.563Z,11.83
2023-11-18T17:40:16.925Z,11.52
2023-11-18T17:42:46.136Z,13.23
2023-11-18T17:45:14.464Z,13.20
2023-11-18T17:47:44.515Z,15.88
2023-11-18T17:50:15.615Z,13.23
2023-11-18T17:52:48.518Z,12.85
2023-11-18T17:55:16.594Z,12.90
2023-11-18T17:57:48.396Z,14.45
2023-11-18T18:00:25.207Z,14.93
2023-11-18T18:02:53.427Z,22.77
2023-11-18T18:05:21.742Z,18.30
2023-11-18T18:07:48.795Z,16.27
2023-11-18T18:10:17.179Z,15.55
2023-11-18T18:12:48.113Z,13.93
2023-11-18T18:15:16.122Z,15.73
2023-11-18T18:17:44.166Z,14.18
2023-11-18T18:20:13.759Z,10.65
2023-11-18T18:22:42.016Z,14.57
2023-11-18T18:25:10.242Z,14.02
2023-11-18T18:27:37.287Z,16.33
2023-11-18T18:30:05.971Z,14.43
2023-11-18T18:32:33.088Z,12.27
2023-11-18T18:35:00.513Z,12.50
2023-11-18T18:37:28.013Z,9.45
2023-11-18T18:39:56.870Z,9.10
2023-11-18T18:42:24.396Z,8.75
2023-11-18T18:44:51.939Z,10.82
2023-11-18T18:47:22.303Z,18.20
2023-11-18T18:49:52.505Z,19.20
2023-11-18T18:52:19.661Z,23.27
2023-11-18T18:54:47.976Z,22.50
2023-11-18T18:57:14.958Z,16.13
2023-11-18T18:59:43.971Z,14.60
2023-11-18T19:02:11.360Z,12.20
2023-11-18T19:04:38.791Z,15.47
2023-11-18T19:07:05.711Z,14.38
2023-11-18T19:09:33.152Z,10.80
2023-11-18T19:12:00.082Z,10.43
2023-11-18T19:14:27.530Z,9.48
2023-11-18T19:16:54.883Z,8.80
2023-11-18T19:19:22.949Z,11.07
2023-11-18T19:21:52.377Z,11.93
2023-11-18T19:24:20.897Z,10.65
2023-11-18T19:26:49.293Z,16.63
2023-11-18T19:29:16.873Z,13.50
2023-11-18T19:31:43.935Z,13.30
2023-11-18T19:34:11.700Z,13.05
2023-11-18T19:36:38.839Z,12.23
2023-11-18T19:39:08.379Z,10.93
2023-11-18T19:41:35.474Z,12.33
2023-11-18T19:44:03.137Z,11.93
2023-11-18T19:46:30.242Z,13.77
2023-11-18T19:48:58.735Z,11.25
2023-11-18T19:51:25.839Z,10.32
2023-11-18T19:53:53.144Z,9.80
2023-11-18T19:56:20.070Z,11.93
2023-11-18T19:58:47.351Z,14.02
2023-11-18T20:01:19.422Z,13.77
2023-11-18T20:03:47.911Z,19.13
2023-11-18T20:06:15.055Z,18.77
2023-11-18T20:08:42.423Z,12.90
2023-11-18T20:11:11.072Z,11.23
2023-11-18T20:13:39.057Z,11.68
2023-11-18T20:16:08.883Z,10.60
2023-11-18T20:18:36.555Z,12.00
2023-11-18T20:21:04.152Z,12.32
2023-11-18T20:23:31.675Z,12.23
2023-11-18T20:25:58.786Z,16.08
2023-11-18T20:28:27.619Z,12.88
2023-11-18T20:30:57.142Z,9.87
2023-11-18T20:33:24.575Z,10.35
2023-11-18T20:35:51.930Z,6.70
2023-11-18T20:38:19.317Z,6.32
2023-11-18T20:40:47.489Z,6.15
2023-11-18T20:43:15.706Z,6.33
2023-11-18T20:45:42.645Z,6.43
2023-11-18T20:48:10.038Z,6.03
2023-11-18T20:50:37.322Z,5.88
2023-11-18T20:53:05.700Z,7.05
2023-11-18T20:55:32.992Z,6.07
2023-11-18T20:58:00.317Z,6.35
2023-11-18T21:00:27.334Z,6.28
2023-11-18T21:02:54.747Z,5.97
2023-11-18T21:05:22.926Z,5.70
2023-11-18T21:07:50.372Z,14.73
2023-11-18T21:10:17.903Z,23.33
2023-11-18T21:12:45.226Z,10.27
2023-11-18T21:15:13.881Z,6.97
2023-11-18T21:17:41.743Z,5.68
2023-11-18T21:20:16.336Z,15.97
2023-11-18T21:22:44.978Z,6.45
2023-11-18T21:25:20.204Z,6.53
2023-11-18T21:27:47.521Z,6.22
2023-11-18T21:30:15.130Z,7.82
2023-11-18T21:32:46.685Z,6.03
2023-11-18T21:35:16.243Z,20.90
2023-11-18T21:37:43.704Z,13.70
2023-11-18T21:40:14.641Z,6.25
2023-11-18T21:42:42.790Z,4.82
2023-11-18T21:45:11.850Z,4.77
2023-11-18T21:47:40.138Z,4.80
2023-11-18T21:50:07.828Z,8.13
2023-11-18T21:52:35.293Z,19.75
2023-11-18T21:55:05.565Z,10.10
2023-11-18T21:57:39.104Z,5.70
2023-11-18T22:00:13.021Z,5.70
2023-11-18T22:02:41.156Z,4.35
2023-11-18T22:05:11.702Z,4.18
2023-11-18T22:07:39.062Z,4.40
2023-11-18T22:10:18.402Z,5.80
2023-11-18T22:12:46.475Z,6.68
2023-11-18T22:15:18.271Z,9.13
2023-11-18T22:17:46.536Z,8.10
2023-11-18T22:20:16.183Z,7.43
2023-11-18T22:22:43.598Z,7.00
2023-11-18T22:25:10.867Z,5.82
2023-11-18T22:27:41.629Z,8.65
2023-11-18T22:30:09.744Z,7.60
2023-11-18T22:32:39.297Z,5.65
2023-11-18T22:35:10.235Z,6.40
2023-11-18T22:37:37.683Z,8.40
2023-11-18T22:40:16.817Z,8.15
2023-11-18T22:42:48.248Z,9.27
2023-11-18T22:45:21.062Z,6.82
2023-11-18T22:47:54.346Z,5.70
2023-11-18T22:50:25.070Z,5.15
2023-11-18T22:52:54.813Z,7.28
2023-11-18T22:55:23.330Z,10.50
2023-11-18T22:57:50.968Z,10.02
2023-11-18T23:00:33.385Z,6.63
2023-11-18T23:03:01.137Z,6.15
2023-11-18T23:05:28.243Z,6.00
2023-11-18T23:07:58.717Z,5.68
2023-11-18T23:10:26.647Z,5.60
2023-11-18T23:12:56.369Z,5.63
2023-11-18T23:15:25.925Z,5.43
2023-11-18T23:17:53.868Z,6.28
2023-11-18T23:20:22.635Z,6.15
2023-11-18T23:22:51.918Z,5.75
2023-11-18T23:25:20.578Z,6.17
2023-11-18T23:27:48.250Z,5.38
2023-11-18T23:30:15.243Z,5.72
2023-11-18T23:32:43.757Z,5.43
2023-11-18T23:35:10.899Z,4.63
2023-11-18T23:37:38.423Z,5.97
2023-11-18T23:40:12.993Z,6.15
2023-11-18T23:42:41.016Z,7.32
2023-11-18T23:45:08.720Z,6.13
2023-11-18T23:47:35.998Z,6.72
2023-11-18T23:50:02.978Z,5.70
2023-11-18T23:52:30.809Z,6.53
2023-11-18T23:54:57.768Z,7.22
2023-11-18T23:57:25.098Z,6.43
2023-11-18T23:59:54.695Z,6.80
